Time;durP1;ratioP1;P1;durP2;ratioP2;P2;SDS_P1;SDS_P2;PMS_P1;PMS_P2;Temp;Humidity;BMP_temperature;BMP_pressure;BME280_temperature;BME280_humidity;BME280_pressure;Samples;Min_cycle;Max_cycle;Signal;HPM_P1;HPM_P2
2023/02/08 00:00:23;;;;;;;44.42;9.70;;;;;;;7.88;100.00;103423.38;5052841;28;20021;-65
2023/02/08 00:02:49;;;;;;;38.25;9.65;;;;;;;7.77;100.00;103421.53;5052426;28;20035;-65
2023/02/08 00:05:15;;;;;;;45.58;8.88;;;;;;;7.69;100.00;103408.72;5053158;28;20025;-65
2023/02/08 00:07:41;;;;;;;46.50;9.45;;;;;;;7.85;100.00;103421.81;5052479;28;20101;-65
2023/02/08 00:10:07;;;;;;;42.10;8.95;;;;;;;7.82;100.00;103422.03;5053324;28;20436;-64
2023/02/08 00:12:33;;;;;;;47.92;10.07;;;;;;;7.77;100.00;103405.44;5051493;28;20086;-64
2023/02/08 00:14:58;;;;;;;47.47;9.68;;;;;;;7.88;100.00;103418.91;5018047;28;20044;-65
2023/02/08 00:17:24;;;;;;;51.85;9.95;;;;;;;7.83;100.00;103414.84;5050902;28;20067;-65
2023/02/08 00:19:49;;;;;;;45.80;8.82;;;;;;;7.73;100.00;103412.84;5052548;28;20107;-65
2023/02/08 00:22:14;;;;;;;49.03;9.45;;;;;;;7.71;100.00;103414.78;5051392;28;20056;-64
2023/02/08 00:24:40;;;;;;;37.00;9.48;;;;;;;7.73;100.00;103422.72;5052854;28;20120;-65
2023/02/08 00:27:05;;;;;;;45.22;9.25;;;;;;;7.74;100.00;103419.06;5052183;28;20028;-65
2023/02/08 00:29:32;;;;;;;40.45;9.05;;;;;;;7.83;100.00;103407.66;5052243;28;20055;-64
2023/02/08 00:31:58;;;;;;;60.72;10.63;;;;;;;7.97;100.00;103401.22;5050948;28;20120;-66
2023/02/08 00:34:23;;;;;;;49.75;9.85;;;;;;;7.99;100.00;103400.16;5050797;28;20471;-64
2023/02/08 00:36:49;;;;;;;43.60;9.25;;;;;;;8.03;100.00;103406.13;5051711;28;20436;-65
2023/02/08 00:39:14;;;;;;;40.38;9.38;;;;;;;8.00;100.00;103406.34;5052105;28;20029;-65
2023/02/08 00:41:40;;;;;;;42.95;10.02;;;;;;;8.05;100.00;103398.81;5051837;28;20078;-65
2023/02/08 00:44:05;;;;;;;46.75;9.55;;;;;;;8.07;100.00;103385.28;5052042;28;20143;-65
2023/02/08 00:46:31;;;;;;;44.10;9.70;;;;;;;8.09;100.00;103380.66;5051660;28;20033;-65
2023/02/08 00:48:56;;;;;;;47.35;10.13;;;;;;;8.10;100.00;103380.53;5052298;28;20063;-65
2023/02/08 00:51:22;;;;;;;46.20;9.98;;;;;;;8.16;100.00;103376.53;5050875;28;20037;-65
2023/02/08 00:53:47;;;;;;;43.42;9.80;;;;;;;8.04;100.00;103367.59;5017270;28;20137;-65
2023/02/08 00:56:14;;;;;;;43.38;9.60;;;;;;;8.05;100.00;103371.16;5050963;28;20114;-65
2023/02/08 00:58:39;;;;;;;43.35;8.98;;;;;;;8.00;100.00;103371.50;5051999;28;20477;-65
2023/02/08 01:01:06;;;;;;;50.75;10.05;;;;;;;8.07;100.00;103379.91;5051998;28;20138;-66
2023/02/08 01:03:36;;;;;;;35.22;8.55;;;;;;;7.95;100.00;103377.22;5050731;28;20045;-65
2023/02/08 01:06:03;;;;;;;34.20;9.43;;;;;;;7.98;100.00;103381.50;5052271;28;20649;-66
2023/02/08 01:08:29;;;;;;;40.22;9.23;;;;;;;7.99;100.00;103383.22;5052200;28;20033;-65
2023/02/08 01:11:21;;;;;;;42.30;9.20;;;;;;;8.02;100.00;103382.13;5050430;28;20059;-64
2023/02/08 01:13:47;;;;;;;36.85;8.43;;;;;;;7.98;100.00;103384.19;5052342;28;20040;-65
2023/02/08 01:16:15;;;;;;;46.05;10.07;;;;;;;8.10;100.00;103377.84;5050663;28;20025;-65
2023/02/08 01:18:43;;;;;;;36.30;9.52;;;;;;;8.09;100.00;103386.88;5051520;28;20033;-70
2023/02/08 01:21:11;;;;;;;43.38;9.50;;;;;;;8.08;100.00;103376.25;5051181;28;20090;-64
2023/02/08 01:23:37;;;;;;;51.90;9.50;;;;;;;7.95;100.00;103376.38;5050757;28;20152;-64
2023/02/08 01:26:03;;;;;;;43.50;9.50;;;;;;;8.10;100.00;103385.03;5052055;28;20036;-65
2023/02/08 01:28:29;;;;;;;44.13;9.48;;;;;;;8.09;100.00;103373.47;5051564;28;20518;-65
2023/02/08 01:30:54;;;;;;;35.53;8.95;;;;;;;8.01;100.00;103365.16;5052257;28;20063;-65
2023/02/08 01:33:20;;;;;;;47.75;10.30;;;;;;;8.11;100.00;103365.28;5051999;28;20458;-64
2023/02/08 01:35:49;;;;;;;41.63;9.13;;;;;;;7.99;100.00;103359.06;5052273;28;20394;-64
2023/02/08 01:38:15;;;;;;;36.17;9.75;;;;;;;8.08;100.00;103363.72;5051605;28;20160;-65
2023/02/08 01:40:40;;;;;;;40.58;9.23;;;;;;;8.09;100.00;103365.44;5051888;28;20538;-65
2023/02/08 01:43:27;;;;;;;32.42;9.25;;;;;;;8.14;100.00;103365.06;5050550;28;20101;-65
2023/02/08 01:45:53;;;;;;;29.83;8.75;;;;;;;8.15;100.00;103373.00;5051881;28;20017;-65
2023/02/08 01:48:40;;;;;;;43.65;9.50;;;;;;;8.10;100.00;103379.69;5051312;28;20091;-65
2023/02/08 01:51:09;;;;;;;46.70;9.05;;;;;;;8.17;100.00;103378.22;5051326;28;20381;-65
2023/02/08 01:53:34;;;;;;;33.90;8.57;;;;;;;8.17;100.00;103380.91;5052665;28;20476;-65
2023/02/08 01:56:05;;;;;;;36.63;8.27;;;;;;;8.05;100.00;103382.75;5054792;28;20056;-65
2023/02/08 01:58:35;;;;;;;43.30;9.45;;;;;;;8.06;100.00;103362.97;5054099;28;20033;-65
2023/02/08 02:01:02;;;;;;;47.42;9.00;;;;;;;8.13;100.00;103380.28;5055168;28;20116;-65
2023/02/08 02:03:27;;;;;;;36.92;8.93;;;;;;;8.21;100.00;103387.72;5055526;28;20078;-65
2023/02/08 02:06:09;;;;;;;43.83;9.73;;;;;;;8.09;100.00;103396.75;5055276;28;20096;-65
2023/02/08 02:08:35;;;;;;;37.13;8.18;;;;;;;8.20;100.00;103386.03;5053626;28;20455;-65
2023/02/08 02:11:00;;;;;;;45.78;9.40;;;;;;;8.27;100.00;103384.56;5055002;28;20025;-65
2023/02/08 02:13:27;;;;;;;36.30;8.55;;;;;;;8.30;100.00;103389.69;5055055;28;20056;-65
2023/02/08 02:15:53;;;;;;;37.55;8.43;;;;;;;8.27;100.00;103391.78;5053674;28;20047;-65
2023/02/08 02:18:30;;;;;;;40.97;9.35;;;;;;;8.26;100.00;103400.81;5052308;28;20037;-65
2023/02/08 02:21:17;;;;;;;33.40;8.57;;;;;;;8.28;100.00;103413.13;5054588;28;20411;-67
2023/02/08 02:23:55;;;;;;;40.45;8.70;;;;;;;8.20;100.00;103412.84;5054769;28;20056;-65
2023/02/08 02:26:30;;;;;;;42.08;8.70;;;;;;;8.26;100.00;103412.38;5054718;28;20080;-65
2023/02/08 02:29:17;;;;;;;44.70;8.65;;;;;;;8.22;100.00;103411.78;5054795;28;20105;-65
2023/02/08 02:31:45;;;;;;;44.47;9.05;;;;;;;8.25;100.00;103416.06;5050325;28;20048;-65
2023/02/08 02:34:26;;;;;;;38.08;8.07;;;;;;;8.21;100.00;103401.16;5054418;28;20025;-65
2023/02/08 02:37:30;;;;;;;31.92;8.20;;;;;;;8.19;100.00;103417.38;5053581;28;20104;-65
2023/02/08 02:40:01;;;;;;;36.25;8.25;;;;;;;8.28;100.00;103410.44;5030277;28;20455;-64
2023/02/08 02:45:34;;;;;;;33.88;7.85;;;;;;;8.13;100.00;103392.84;5055934;28;20112;-65
2023/02/08 02:48:11;;;;;;;39.53;8.75;;;;;;;8.27;100.00;103407.88;5057120;28;20017;-65
2023/02/08 02:50:44;;;;;;;29.77;8.80;;;;;;;8.34;100.00;103414.44;5054640;28;20490;-64
2023/02/08 02:53:27;;;;;;;36.08;9.00;;;;;;;8.34;100.00;103415.31;5053955;28;20033;-65
2023/02/08 02:56:03;;;;;;;43.92;9.65;;;;;;;8.22;100.00;103427.00;5053987;28;20079;-65
2023/02/08 02:58:30;;;;;;;36.95;9.45;;;;;;;8.29;100.00;103433.59;5053746;28;20028;-65
2023/02/08 03:00:58;;;;;;;32.47;8.70;;;;;;;8.31;100.00;103433.47;5054031;28;20027;-65
2023/02/08 03:03:27;;;;;;;45.55;10.00;;;;;;;8.20;100.00;103435.16;5054167;28;20377;-65
2023/02/08 03:06:00;;;;;;;39.15;8.75;;;;;;;8.32;100.00;103433.38;5051697;28;20036;-65
2023/02/08 03:08:47;;;;;;;38.50;10.07;;;;;;;8.35;100.00;103433.13;5053769;28;20023;-64
2023/02/08 03:11:30;;;;;;;32.92;8.65;;;;;;;8.38;100.00;103430.25;5052909;28;20032;-64
2023/02/08 03:14:20;;;;;;;31.00;8.95;;;;;;;8.27;100.00;103435.53;5052411;28;20039;-65
2023/02/08 03:17:12;;;;;;;35.30;9.10;;;;;;;8.28;100.00;103431.91;5054200;28;20028;-65
2023/02/08 03:20:05;;;;;;;41.55;9.77;;;;;;;8.21;100.00;103433.31;5053570;28;20033;-65
2023/02/08 03:22:41;;;;;;;47.35;9.80;;;;;;;8.33;100.00;103437.75;5053804;28;20118;-65
2023/02/08 03:25:17;;;;;;;32.50;8.20;;;;;;;8.21;100.00;103426.16;5054312;28;20020;-66
2023/02/08 03:27:54;;;;;;;39.63;9.23;;;;;;;8.32;100.00;103443.25;5053772;28;20043;-65
2023/02/08 03:30:30;;;;;;;35.75;9.38;;;;;;;8.26;100.00;103423.13;5053410;28;20416;-65
2023/02/08 03:33:00;;;;;;;37.70;9.57;;;;;;;8.41;100.00;103439.84;5053198;28;20017;-66
2023/02/08 03:35:56;;;;;;;43.45;9.65;;;;;;;8.37;100.00;103451.78;5053498;28;20033;-65
2023/02/08 03:38:34;;;;;;;40.30;9.32;;;;;;;8.38;100.00;103454.38;5050672;28;20102;-65
2023/02/08 03:41:03;;;;;;;39.40;9.40;;;;;;;8.38;100.00;103454.38;5052437;28;20029;-66
2023/02/08 03:43:36;;;;;;;37.78;9.05;;;;;;;8.05;100.00;103417.59;5052840;28;20024;-65
2023/02/08 03:46:15;;;;;;;43.03;9.50;;;;;;;8.15;100.00;103450.78;5052212;28;20036;-66
2023/02/08 03:48:50;;;;;;;39.20;10.15;;;;;;;8.11;100.00;103460.03;5052303;28;20017;-66
2023/02/08 03:51:16;;;;;;;41.72;9.45;;;;;;;8.10;100.00;103450.25;5052449;28;20108;-65
2023/02/08 03:53:45;;;;;;;44.53;10.23;;;;;;;8.15;100.00;103449.94;5052834;28;20029;-65
2023/02/08 03:56:19;;;;;;;38.13;9.57;;;;;;;8.30;100.00;103445.19;5052876;28;20132;-65
2023/02/08 03:59:09;;;;;;;48.53;10.20;;;;;;;8.16;100.00;103425.66;5052810;28;20106;-65
2023/02/08 04:01:42;;;;;;;41.33;9.52;;;;;;;8.23;100.00;103445.66;5053311;28;20472;-65
2023/02/08 04:04:09;;;;;;;43.90;11.35;;;;;;;8.25;100.00;103445.56;5051981;28;20033;-65
2023/02/08 04:06:34;;;;;;;42.58;10.90;;;;;;;8.23;100.00;103450.16;5051745;28;20547;-65
2023/02/08 04:08:59;;;;;;;47.38;12.02;;;;;;;8.26;100.00;103446.41;5051640;28;20025;-65
2023/02/08 04:11:25;;;;;;;45.17;11.25;;;;;;;8.28;100.00;103455.16;5035244;28;20026;-66
2023/02/08 04:13:50;;;;;;;53.03;12.40;;;;;;;8.28;100.00;103457.84;5051577;28;20419;-65
2023/02/08 04:16:16;;;;;;;50.22;11.70;;;;;;;8.30;100.00;103450.56;5052769;28;20020;-66
2023/02/08 04:18:41;;;;;;;42.05;11.25;;;;;;;8.27;100.00;103451.63;5051671;28;20103;-65
2023/02/08 04:21:07;;;;;;;41.22;11.88;;;;;;;8.26;100.00;103449.09;5051728;28;20037;-66
2023/02/08 04:23:32;;;;;;;43.03;11.10;;;;;;;8.12;100.00;103426.03;5034676;28;20056;-65
2023/02/08 04:25:58;;;;;;;33.90;10.20;;;;;;;8.23;100.00;103448.34;5034510;28;20377;-65
2023/02/08 04:28:23;;;;;;;47.42;11.25;;;;;;;8.23;100.00;103448.34;5051866;28;20021;-65
2023/02/08 04:30:48;;;;;;;39.78;10.38;;;;;;;8.33;100.00;103448.47;5051903;28;20033;-66
2023/02/08 04:33:14;;;;;;;42.20;10.85;;;;;;;8.28;100.00;103437.28;5053707;28;20136;-65
2023/02/08 04:35:42;;;;;;;34.60;10.07;;;;;;;8.36;100.00;103453.59;5050976;28;20478;-65
2023/02/08 04:38:08;;;;;;;40.50;10.00;;;;;;;8.36;100.00;103445.56;5051558;28;20029;-65
2023/02/08 04:40:33;;;;;;;42.25;10.27;;;;;;;8.35;100.00;103448.38;5051994;28;20479;-65
2023/02/08 04:42:59;;;;;;;43.80;10.52;;;;;;;8.36;100.00;103450.94;5052405;28;20028;-65
2023/02/08 04:45:25;;;;;;;41.50;9.95;;;;;;;8.43;100.00;103456.69;5051143;28;20452;-66
2023/02/08 04:47:51;;;;;;;51.17;11.27;;;;;;;8.51;100.00;103453.41;5050809;28;20526;-65
2023/02/08 04:50:17;;;;;;;40.00;10.23;;;;;;;8.34;100.00;103433.22;5052856;28;20024;-66
2023/02/08 04:52:42;;;;;;;39.65;10.20;;;;;;;8.44;100.00;103451.22;5055542;28;20431;-65
2023/02/08 04:55:08;;;;;;;32.13;9.77;;;;;;;8.38;100.00;103443.66;5052245;28;20028;-65
2023/02/08 04:57:33;;;;;;;38.67;10.32;;;;;;;8.38;100.00;103446.34;5051079;28;20028;-65
2023/02/08 04:59:58;;;;;;;39.30;10.20;;;;;;;8.38;100.00;103443.66;5052212;28;20025;-65
2023/02/08 05:02:24;;;;;;;47.67;10.65;;;;;;;8.38;100.00;103443.66;5051013;28;20033;-65
2023/02/08 05:04:49;;;;;;;40.50;10.50;;;;;;;8.39;100.00;103444.50;5052094;28;20031;-65
2023/02/08 05:07:15;;;;;;;45.63;10.48;;;;;;;8.40;100.00;103451.56;5034431;28;20025;-66
2023/02/08 05:09:40;;;;;;;41.08;10.80;;;;;;;8.41;100.00;103454.16;5051132;28;20048;-65
2023/02/08 05:12:06;;;;;;;46.13;10.65;;;;;;;8.45;100.00;103446.72;5052383;28;20052;-65
2023/02/08 05:14:31;;;;;;;41.85;10.63;;;;;;;8.32;100.00;103446.78;5051037;28;20451;-66
2023/02/08 05:16:57;;;;;;;45.83;11.43;;;;;;;8.28;100.00;103449.81;5050912;28;20486;-65
2023/02/08 05:19:22;;;;;;;45.40;11.60;;;;;;;8.15;100.00;103426.63;5051763;28;20048;-65
2023/02/08 05:21:48;;;;;;;55.05;12.40;;;;;;;8.25;100.00;103432.16;5051006;28;20033;-65
2023/02/08 05:24:14;;;;;;;47.30;11.93;;;;;;;8.28;100.00;103448.00;5050355;28;20076;-65
2023/02/08 05:26:40;;;;;;;42.65;12.80;;;;;;;8.21;100.00;103446.75;5052063;28;20051;-65
2023/02/08 05:29:06;;;;;;;48.05;13.02;;;;;;;8.11;100.00;103433.22;5054050;28;20567;-66
2023/02/08 05:31:31;;;;;;;63.30;14.48;;;;;;;8.02;100.00;103419.66;5058885;28;20072;-65
2023/02/08 05:33:57;;;;;;;62.00;14.88;;;;;;;8.01;100.00;103429.50;5021383;28;20025;-66
2023/02/08 05:36:22;;;;;;;46.10;16.05;;;;;;;7.94;100.00;103439.00;5055557;28;20048;-65
2023/02/08 05:38:48;;;;;;;60.05;16.08;;;;;;;7.87;100.00;103433.25;5056110;28;20108;-65
2023/02/08 05:41:14;;;;;;;51.08;16.30;;;;;;;7.80;100.00;103431.16;5054449;28;20063;-65
2023/02/08 05:43:40;;;;;;;55.85;15.18;;;;;;;7.72;100.00;103432.59;5055384;28;20028;-64
2023/02/08 05:46:06;;;;;;;51.60;15.60;;;;;;;7.85;100.00;103435.22;5054396;28;20465;-66
2023/02/08 05:48:31;;;;;;;55.85;16.85;;;;;;;7.84;100.00;103436.16;5052855;28;20028;-66
2023/02/08 05:50:58;;;;;;;56.28;16.40;;;;;;;7.76;100.00;103430.53;5055779;28;20654;-65
2023/02/08 05:53:23;;;;;;;58.42;16.38;;;;;;;7.72;100.00;103421.03;5055538;28;20064;-66
2023/02/08 05:55:49;;;;;;;50.83;15.30;;;;;;;7.61;100.00;103395.03;5054870;28;20112;-66
2023/02/08 05:58:15;;;;;;;62.65;15.93;;;;;;;7.80;100.00;103405.19;5054848;28;20025;-65
2023/02/08 06:00:40;;;;;;;57.40;16.02;;;;;;;7.76;100.00;103401.91;5053739;28;20115;-65
2023/02/08 06:03:06;;;;;;;60.20;15.95;;;;;;;7.67;100.00;103401.75;5053431;28;20470;-65
2023/02/08 06:05:31;;;;;;;53.90;15.45;;;;;;;7.56;100.00;103407.06;5053796;28;20053;-65
2023/02/08 06:07:57;;;;;;;50.30;15.23;;;;;;;7.62;100.00;103401.25;5055162;28;20029;-65
2023/02/08 06:10:22;;;;;;;62.63;16.25;;;;;;;7.66;100.00;103398.22;5053918;28;20174;-65
2023/02/08 06:12:48;;;;;;;52.35;15.52;;;;;;;7.65;100.00;103409.03;5053400;28;20111;-65
2023/02/08 06:15:13;;;;;;;59.83;16.80;;;;;;;7.51;100.00;103407.41;5053547;28;20033;-65
2023/02/08 06:17:39;;;;;;;55.83;14.60;;;;;;;7.37;100.00;103411.13;5054557;28;20025;-66
2023/02/08 06:20:05;;;;;;;59.50;16.17;;;;;;;7.24;100.00;103383.53;5052390;28;20031;-65
2023/02/08 06:22:32;;;;;;;59.97;15.93;;;;;;;7.39;100.00;103411.03;5054316;28;20461;-65
2023/02/08 06:24:58;;;;;;;67.00;16.70;;;;;;;7.33;100.00;103406.97;5054810;28;20041;-66
2023/02/08 06:27:23;;;;;;;62.80;18.38;;;;;;;7.36;100.00;103416.59;5053291;28;20102;-65
2023/02/08 06:29:49;;;;;;;58.72;18.45;;;;;;;7.41;100.00;103409.91;5053934;28;20116;-65
2023/02/08 06:32:15;;;;;;;66.60;18.75;;;;;;;7.34;100.00;103397.09;5053172;28;20036;-65
2023/02/08 06:34:40;;;;;;;65.32;18.30;;;;;;;7.36;100.00;103413.94;5053352;28;20115;-65
2023/02/08 06:37:06;;;;;;;63.90;18.45;;;;;;;7.51;100.00;103413.63;5054650;28;20037;-65
2023/02/08 06:39:31;;;;;;;65.45;19.45;;;;;;;7.45;100.00;103414.09;5052443;28;20052;-65
2023/02/08 06:41:57;;;;;;;65.78;18.75;;;;;;;7.52;100.00;103409.97;5053638;28;20043;-65
2023/02/08 06:44:23;;;;;;;53.60;18.65;;;;;;;7.45;100.00;103413.22;5053070;28;20047;-65
2023/02/08 06:46:48;;;;;;;62.83;20.38;;;;;;;7.51;100.00;103416.28;5052898;28;20097;-65
2023/02/08 06:49:14;;;;;;;69.18;20.63;;;;;;;7.49;100.00;103420.94;5052599;28;20020;-65
2023/02/08 06:51:39;;;;;;;64.32;20.30;;;;;;;7.47;100.00;103420.19;5054070;28;20526;-65
2023/02/08 06:54:04;;;;;;;66.15;20.70;;;;;;;7.46;100.00;103423.84;5054122;28;20032;-65
2023/02/08 06:56:30;;;;;;;66.72;19.75;;;;;;;7.48;100.00;103431.75;5052961;28;20073;-65
2023/02/08 06:58:56;;;;;;;64.95;18.90;;;;;;;7.48;100.00;103432.63;5052388;28;20033;-65
2023/02/08 07:01:22;;;;;;;67.35;18.83;;;;;;;7.49;100.00;103428.97;5052999;28;20090;-65
2023/02/08 07:03:47;;;;;;;65.43;18.77;;;;;;;7.53;100.00;103426.91;5052171;28;20064;-65
2023/02/08 07:06:14;;;;;;;55.30;18.27;;;;;;;7.51;100.00;103431.53;5052286;28;20865;-66
2023/02/08 07:08:40;;;;;;;56.78;18.75;;;;;;;7.45;100.00;103434.66;5052812;28;20416;-65
2023/02/08 07:11:15;;;;;;;57.58;17.67;;;;;;;7.51;100.00;103440.41;5051827;28;20048;-65
2023/02/08 07:13:41;;;;;;;54.60;17.23;;;;;;;7.54;100.00;103434.81;5051903;28;20388;-66
2023/02/08 07:16:08;;;;;;;53.53;16.80;;;;;;;7.51;100.00;103436.88;5053481;28;20503;-66
2023/02/08 07:18:34;;;;;;;46.17;16.90;;;;;;;7.46;100.00;103439.91;5053669;28;20461;-65
2023/02/08 07:21:00;;;;;;;51.55;17.73;;;;;;;7.46;100.00;103433.69;5053542;28;20075;-65
2023/02/08 07:23:25;;;;;;;47.97;16.55;;;;;;;7.41;100.00;103435.84;5051737;28;20080;-65
2023/02/08 07:26:06;;;;;;;47.15;16.42;;;;;;;7.43;100.00;103433.94;5053230;28;20033;-65
2023/02/08 07:28:33;;;;;;;46.45;16.13;;;;;;;7.40;100.00;103443.03;5052753;28;20051;-65
2023/02/08 07:30:58;;;;;;;54.30;16.05;;;;;;;7.38;100.00;103442.28;5052901;28;20515;-65
2023/02/08 07:33:24;;;;;;;45.47;13.85;;;;;;;7.33;100.00;103432.91;5053072;28;20068;-66
2023/02/08 07:35:50;;;;;;;44.28;15.43;;;;;;;7.32;100.00;103425.81;5052019;28;20025;-65
2023/02/08 07:38:17;;;;;;;55.90;17.23;;;;;;;7.43;100.00;103426.75;5052866;28;20474;-65
2023/02/08 07:40:43;;;;;;;57.42;17.25;;;;;;;7.38;100.00;103428.03;5052822;28;20025;-65
2023/02/08 07:43:08;;;;;;;57.00;18.27;;;;;;;7.41;100.00;103434.03;5052643;28;20084;-65
2023/02/08 07:45:36;;;;;;;53.38;17.73;;;;;;;7.43;100.00;103437.47;5052614;28;20032;-66
2023/02/08 07:48:02;;;;;;;74.47;20.88;;;;;;;7.50;100.00;103441.38;5052602;28;20735;-65
2023/02/08 07:50:27;;;;;;;59.35;18.80;;;;;;;7.45;100.00;103432.84;5051860;28;20111;-65
2023/02/08 07:52:53;;;;;;;59.95;19.30;;;;;;;7.48;100.00;103443.34;5051965;28;20531;-65
2023/02/08 07:55:19;;;;;;;71.03;20.80;;;;;;;7.53;100.00;103445.66;5051298;28;20024;-65
2023/02/08 07:57:48;;;;;;;75.75;22.15;;;;;;;7.47;100.00;103436.25;5051983;28;20159;-65
2023/02/08 08:00:16;;;;;;;70.65;19.67;;;;;;;7.50;100.00;103441.38;5051973;28;20116;-65
2023/02/08 08:02:41;;;;;;;62.78;20.60;;;;;;;7.54;100.00;103447.38;5052619;28;20024;-65
2023/02/08 08:05:07;;;;;;;64.38;21.23;;;;;;;7.50;100.00;103438.72;5052555;28;20025;-65
2023/02/08 08:07:33;;;;;;;73.05;20.48;;;;;;;7.45;100.00;103424.81;5052325;28;20043;-65
2023/02/08 08:09:59;;;;;;;71.72;21.52;;;;;;;7.51;100.00;103436.88;5051214;28;20020;-65
2023/02/08 08:12:25;;;;;;;70.65;21.77;;;;;;;7.53;100.00;103443.84;5051015;28;20487;-65
2023/02/08 08:14:50;;;;;;;77.07;20.45;;;;;;;7.58;100.00;103450.66;5052312;28;20035;-65
2023/02/08 08:17:16;;;;;;;71.32;19.92;;;;;;;7.47;100.00;103440.75;5052366;28;20029;-66
2023/02/08 08:19:42;;;;;;;70.70;20.27;;;;;;;7.51;100.00;103439.56;5053615;28;20094;-66
2023/02/08 08:22:07;;;;;;;68.53;20.00;;;;;;;7.53;100.00;103449.19;5052059;28;20061;-65
2023/02/08 08:24:36;;;;;;;62.47;20.70;;;;;;;7.57;100.00;103433.75;5051832;28;20036;-65
2023/02/08 08:27:03;;;;;;;62.05;21.70;;;;;;;7.59;100.00;103439.84;5051451;28;20037;-65
2023/02/08 08:29:30;;;;;;;76.50;22.50;;;;;;;7.62;100.00;103445.00;5052195;28;20017;-65
2023/02/08 08:31:56;;;;;;;58.25;20.55;;;;;;;7.65;100.00;103444.75;5051748;28;20025;-65
2023/02/08 08:34:28;;;;;;;66.75;22.52;;;;;;;7.66;100.00;103440.25;5051911;28;20029;-65
2023/02/08 08:36:57;;;;;;;66.90;21.38;;;;;;;7.68;100.00;103433.81;5052057;28;20033;-65
2023/02/08 08:39:23;;;;;;;59.75;20.17;;;;;;;7.67;100.00;103444.63;5050321;28;20559;-65
2023/02/08 08:41:48;;;;;;;65.25;20.20;;;;;;;7.67;100.00;103442.78;5051922;28;20029;-65
2023/02/08 08:44:13;;;;;;;62.22;21.23;;;;;;;7.76;100.00;103452.84;5050359;28;20033;-65
2023/02/08 08:46:39;;;;;;;81.53;22.60;;;;;;;7.79;100.00;103446.41;5052136;28;20041;-65
2023/02/08 08:49:04;;;;;;;69.18;21.02;;;;;;;7.82;100.00;103450.69;5050559;28;20017;-65
2023/02/08 08:51:34;;;;;;;58.45;20.67;;;;;;;7.87;100.00;103443.97;5051717;28;20029;-65
2023/02/08 08:54:00;;;;;;;66.65;20.83;;;;;;;7.89;100.00;103442.03;5051468;28;20053;-65
2023/02/08 08:56:25;;;;;;;57.63;20.65;;;;;;;7.94;100.00;103453.25;5050673;28;20029;-65
2023/02/08 08:58:51;;;;;;;73.22;21.15;;;;;;;7.98;100.00;103453.91;5051475;28;20035;-65
2023/02/08 09:01:16;;;;;;;61.13;19.92;;;;;;;8.00;100.00;103450.09;5051659;28;20028;-65
2023/02/08 09:03:42;;;;;;;50.78;18.35;;;;;;;7.95;100.00;103457.66;5052600;28;20028;-65
2023/02/08 09:06:07;;;;;;;55.60;20.48;;;;;;;8.06;100.00;103467.56;5054357;28;20040;-66
2023/02/08 09:08:32;;;;;;;53.05;18.35;;;;;;;7.94;100.00;103458.63;5054281;28;20025;-65
2023/02/08 09:11:07;;;;;;;66.90;20.13;;;;;;;7.98;100.00;103459.25;5055633;28;20029;-65
2023/02/08 09:13:34;;;;;;;51.40;18.08;;;;;;;7.82;100.00;103443.47;5054219;28;20029;-65
2023/02/08 09:16:04;;;;;;;56.47;18.63;;;;;;;8.03;100.00;103469.63;5055652;28;20040;-65
2023/02/08 09:18:30;;;;;;;56.42;18.85;;;;;;;7.96;100.00;103462.03;5055373;28;20031;-65
2023/02/08 09:20:55;;;;;;;53.33;18.88;;;;;;;7.94;100.00;103469.34;5055859;28;20037;-65
2023/02/08 09:23:20;;;;;;;54.50;18.23;;;;;;;7.88;100.00;103469.84;5054608;28;20354;-65
2023/02/08 09:25:46;;;;;;;61.92;19.35;;;;;;;8.00;100.00;103468.88;5054531;28;20400;-65
2023/02/08 09:28:11;;;;;;;52.33;17.50;;;;;;;7.92;100.00;103465.94;5054972;28;20219;-65
2023/02/08 09:30:37;;;;;;;57.40;18.98;;;;;;;8.01;100.00;103464.38;5054111;28;20396;-65
2023/02/08 09:33:02;;;;;;;52.75;18.50;;;;;;;7.92;100.00;103465.94;5053996;28;20111;-65
2023/02/08 09:35:28;;;;;;;52.38;18.33;;;;;;;7.89;100.00;103463.50;5055045;28;20471;-65
2023/02/08 09:37:56;;;;;;;56.75;19.23;;;;;;;7.91;100.00;103471.41;5053264;28;20033;-65
2023/02/08 09:40:25;;;;;;;47.55;17.02;;;;;;;7.95;100.00;103471.06;5054719;28;20179;-65
2023/02/08 09:43:20;;;;;;;51.10;18.83;;;;;;;8.07;99.97;103474.63;5054792;28;20056;-65
2023/02/08 09:46:04;;;;;;;52.90;18.83;;;;;;;8.09;100.00;103482.56;5045920;28;20041;-65
2023/02/08 09:48:36;;;;;;;54.37;19.07;;;;;;;7.96;100.00;103466.56;5053829;28;20025;-66
2023/02/08 09:51:26;;;;;;;56.65;19.05;;;;;;;8.02;100.00;103467.94;5054962;28;20029;-65
2023/02/08 09:53:58;;;;;;;46.85;17.42;;;;;;;7.98;100.00;103475.34;5054905;28;20090;-65
2023/02/08 09:56:31;;;;;;;45.90;17.88;;;;;;;7.93;100.00;103467.63;5053170;28;20036;-65
2023/02/08 09:58:59;;;;;;;48.63;17.92;;;;;;;7.93;100.00;103458.75;5054389;28;20435;-65
2023/02/08 10:01:32;;;;;;;55.10;17.25;;;;;;;7.98;100.00;103470.00;5054551;28;20021;-65
2023/02/08 10:04:19;;;;;;;43.67;17.52;;;;;;;8.07;100.00;103469.25;5053536;28;20049;-65
2023/02/08 10:06:45;;;;;;;45.58;19.02;;;;;;;7.98;99.72;103465.47;5054413;28;20526;-65
2023/02/08 10:09:16;;;;;;;53.53;18.33;;;;;;;7.94;100.00;103466.66;5053239;28;20037;-65
2023/02/08 10:11:53;;;;;;;50.80;17.15;;;;;;;7.91;100.00;103466.03;5053089;28;20572;-66
2023/02/08 10:14:39;;;;;;;46.50;17.13;;;;;;;7.97;100.00;103463.75;5054129;28;20556;-65
2023/02/08 10:17:19;;;;;;;46.63;17.70;;;;;;;8.00;99.72;103466.19;5054814;28;20020;-66
2023/02/08 10:20:22;;;;;;;53.15;18.52;;;;;;;8.04;99.19;103482.91;5054617;28;20064;-65
2023/02/08 10:23:08;;;;;;;50.75;18.02;;;;;;;8.12;99.50;103474.28;5054020;28;20470;-65
2023/02/08 10:25:52;;;;;;;48.67;19.90;;;;;;;8.07;99.15;103476.47;5041879;28;20411;-68
2023/02/08 10:28:51;;;;;;;53.83;22.27;;;;;;;8.07;99.52;103469.25;5054148;28;20029;-66
2023/02/08 10:31:55;;;;;;;60.40;22.52;;;;;;;8.02;99.44;103470.59;5054415;28;20396;-65
2023/02/08 10:34:53;;;;;;;53.88;21.80;;;;;;;8.05;99.52;103473.91;5054112;28;20174;-65
2023/02/08 10:37:26;;;;;;;55.17;22.45;;;;;;;7.85;99.53;103456.66;5053954;28;20452;-65
2023/02/08 10:39:54;;;;;;;55.38;23.25;;;;;;;7.85;99.63;103456.66;5054007;28;20123;-65
2023/02/08 10:42:23;;;;;;;50.85;23.55;;;;;;;7.89;99.77;103479.56;5053788;28;20028;-65
2023/02/08 10:45:00;;;;;;;60.25;24.60;;;;;;;7.98;99.67;103478.03;5053317;28;20029;-65
2023/02/08 10:47:42;;;;;;;55.45;23.00;;;;;;;7.90;98.98;103470.56;5053610;28;20028;-65
2023/02/08 10:50:29;;;;;;;48.30;23.05;;;;;;;7.95;98.97;103467.53;5054181;28;20379;-65
2023/02/08 10:52:54;;;;;;;53.35;23.02;;;;;;;7.89;98.22;103462.63;5053705;28;20044;-65
2023/02/08 10:55:20;;;;;;;54.17;24.33;;;;;;;7.96;98.46;103459.38;5035531;28;20025;-65
2023/02/08 10:57:49;;;;;;;60.17;24.70;;;;;;;7.86;98.76;103452.16;5052123;28;20025;-65
2023/02/08 11:00:21;;;;;;;57.22;24.92;;;;;;;7.91;99.02;103448.16;5051843;28;20036;-65
2023/02/08 11:02:49;;;;;;;55.38;24.45;;;;;;;7.84;99.19;103446.03;5052047;28;20051;-65
2023/02/08 11:05:18;;;;;;;55.88;24.67;;;;;;;7.82;99.48;103446.16;5053387;28;20511;-65
2023/02/08 11:07:44;;;;;;;54.88;25.05;;;;;;;7.89;98.66;103442.03;5052141;28;20037;-65
2023/02/08 11:10:21;;;;;;;53.28;24.30;;;;;;;7.91;98.60;103434.75;5052211;28;20029;-65
2023/02/08 11:13:13;;;;;;;52.55;25.23;;;;;;;7.91;98.84;103434.75;5053402;28;20021;-66
2023/02/08 11:15:50;;;;;;;51.60;24.35;;;;;;;7.99;98.57;103429.63;5051817;28;20079;-65
2023/02/08 11:18:32;;;;;;;53.03;23.58;;;;;;;7.98;98.56;103425.25;5051768;28;20337;-65
2023/02/08 11:21:06;;;;;;;49.53;23.38;;;;;;;8.02;98.53;103422.34;5053203;28;20124;-65
2023/02/08 11:23:35;;;;;;;55.33;22.20;;;;;;;8.11;98.14;103435.91;5052635;28;20171;-65
2023/02/08 11:26:38;;;;;;;54.10;23.50;;;;;;;7.77;98.09;103371.44;5052401;28;20036;-65